KGLS/GLS METAR and TAF weather

Enter ICAO airport designator
Station Type Date Time Source
KGLS METAR 2019/08/20 09:52 UTC NOAA

KGLS 200952Z AUTO 00000KT 10SM FEW021 SCT025 27/26 A2999 RMK AO2 RAE45 SLP153 P0002 T02720256


Station Type Date Time Source
KGLS Decoded METAR 2019/08/20 09:52 UTC NOAA

SCHOLES FIELD, TX, United States (KGLS) 29-16N 094-52W 6M
Aug 20, 2019 - 05:52 AM EDT / 2019.08.20 0952 UTC
Wind: Calm:0
Visibility: 10 mile(s):0
Sky conditions: partly cloudy
Precipitation last hour: 0.02 inches
Temperature: 81.0 F (27.2 C)
Dew Point: 78.1 F (25.6 C)
Relative Humidity: 90%
Pressure (altimeter): 29.99 in. Hg (1015 hPa)
ob: KGLS 200952Z AUTO 00000KT 10SM FEW021 SCT025 27/26 A2999 RMK AO2 RAE45 SLP153 P0002 T02720256
cycle: 10

Station Type Date Time Source
KGLS TAF 2019/08/20 09:50 UTC NOAA

TAF
AMD KGLS 200843Z 2009/2106 20008KT P6SM VCSH BKN030
TEMPO 2009/2012 20012G20KT 2SM +RA BKN022
FM201200 20006KT P6SM VCSH SCT030 SCT250
FM201700 19008KT P6SM VCTS SCT030CB SCT060
FM202200 19010KT P6SM SCT030
FM210100 17008KT P6SM FEW025

Example: see airport list